createdAt,value
2023-01-17T00:00:00.585Z,2.56
2023-01-17T00:02:31.159Z,2.55
2023-01-17T00:05:18.315Z,2.52
2023-01-17T00:08:05.119Z,2.50
2023-01-17T00:10:33.536Z,2.47
2023-01-17T00:13:03.576Z,2.47
2023-01-17T00:15:31.955Z,2.49
2023-01-17T00:18:00.214Z,2.51
2023-01-17T00:20:50.902Z,2.52
2023-01-17T00:23:43.228Z,2.51
2023-01-17T00:26:15.811Z,2.49
2023-01-17T00:28:44.867Z,2.48
2023-01-17T00:31:14.902Z,2.47
2023-01-17T00:33:43.034Z,2.45
2023-01-17T00:36:11.955Z,2.46
2023-01-17T00:38:40.676Z,2.48
2023-01-17T00:41:14.619Z,2.51
2023-01-17T00:44:01.410Z,2.53
2023-01-17T00:46:48.074Z,2.52
2023-01-17T00:49:35.622Z,2.52
2023-01-17T00:52:22.254Z,2.50
2023-01-17T00:55:09.381Z,2.49
2023-01-17T00:57:55.890Z,2.48
2023-01-17T01:00:42.588Z,2.51
2023-01-17T01:03:30.005Z,2.53
2023-01-17T01:06:16.993Z,2.57
2023-01-17T01:09:03.769Z,2.57
2023-01-17T01:11:50.794Z,2.54
2023-01-17T01:14:37.377Z,2.51
2023-01-17T01:17:24.005Z,2.48
2023-01-17T01:20:10.587Z,2.46
2023-01-17T01:22:57.213Z,2.45
2023-01-17T01:25:43.711Z,2.45
2023-01-17T01:28:32.263Z,2.46
2023-01-17T01:31:23.347Z,2.46
2023-01-17T01:33:52.371Z,2.44
2023-01-17T01:36:20.527Z,2.41
2023-01-17T01:38:50.364Z,2.39
2023-01-17T01:41:18.657Z,2.35
2023-01-17T01:43:50.243Z,2.33
2023-01-17T01:46:19.748Z,2.35
2023-01-17T01:49:03.321Z,2.38
2023-01-17T01:51:40.285Z,2.38
2023-01-17T01:54:20.775Z,2.38
2023-01-17T01:56:51.451Z,2.38
2023-01-17T01:59:21.219Z,2.37
2023-01-17T02:03:30.429Z,2.33
2023-01-17T02:06:07.793Z,2.33
2023-01-17T02:08:36.586Z,2.34
2023-01-17T02:11:04.875Z,2.35
2023-01-17T02:13:33.015Z,2.34
2023-01-17T02:16:16.130Z,2.35
2023-01-17T02:18:56.833Z,2.35
2023-01-17T02:21:25.261Z,2.37
2023-01-17T02:24:28.868Z,2.36
2023-01-17T02:27:07.275Z,2.36
2023-01-17T02:29:57.841Z,2.38
2023-01-17T02:32:28.866Z,2.39
2023-01-17T02:35:06.135Z,2.42
2023-01-17T02:37:40.625Z,2.43
2023-01-17T02:40:25.661Z,2.43
2023-01-17T02:42:59.951Z,2.43
2023-01-17T02:45:29.146Z,2.41
2023-01-17T02:47:57.518Z,2.41
2023-01-17T02:50:40.245Z,2.42
2023-01-17T02:53:26.468Z,2.44
2023-01-17T02:56:11.584Z,2.46
2023-01-17T02:59:01.130Z,2.46
2023-01-17T03:01:49.993Z,2.46
2023-01-17T03:04:33.588Z,2.45
2023-01-17T03:07:07.317Z,2.41
2023-01-17T03:09:36.727Z,2.41
2023-01-17T03:12:05.730Z,2.39
2023-01-17T03:14:34.118Z,2.38
2023-01-17T03:17:02.511Z,2.39
2023-01-17T03:19:31.501Z,2.39
2023-01-17T03:21:59.544Z,2.38
2023-01-17T03:24:28.813Z,2.37
2023-01-17T03:26:56.912Z,2.37
2023-01-17T03:29:24.986Z,2.39
2023-01-17T03:31:53.103Z,2.42
2023-01-17T03:34:21.276Z,2.45
2023-01-17T03:36:49.905Z,2.47
2023-01-17T03:39:18.104Z,2.47
2023-01-17T03:41:46.100Z,2.44
2023-01-17T03:44:14.161Z,2.39
2023-01-17T03:46:42.425Z,2.38
2023-01-17T03:49:10.523Z,2.38
2023-01-17T03:51:38.667Z,2.38
2023-01-17T03:54:07.100Z,2.37
2023-01-17T03:56:35.169Z,2.37
2023-01-17T03:59:03.341Z,2.35
2023-01-17T04:01:31.815Z,2.34
2023-01-17T04:03:59.911Z,2.30
2023-01-17T04:06:28.684Z,2.29
2023-01-17T04:08:56.751Z,2.28
2023-01-17T04:11:24.791Z,2.28
2023-01-17T04:13:52.765Z,2.29
2023-01-17T04:16:24.649Z,2.28
2023-01-17T04:18:52.683Z,2.27
2023-01-17T04:21:20.728Z,2.23
2023-01-17T04:23:48.962Z,2.19
2023-01-17T04:26:17.202Z,2.14
2023-01-17T04:28:45.242Z,2.10
2023-01-17T04:31:16.402Z,2.07
2023-01-17T04:33:44.379Z,2.04
2023-01-17T04:36:12.486Z,1.99
2023-01-17T04:38:40.584Z,1.94
2023-01-17T04:41:08.604Z,1.90
2023-01-17T04:43:36.705Z,1.86
2023-01-17T04:46:09.986Z,1.80
2023-01-17T04:48:38.593Z,1.73
2023-01-17T04:51:06.886Z,1.69
2023-01-17T04:53:34.995Z,1.66
2023-01-17T04:56:03.364Z,1.63
2023-01-17T04:58:33.436Z,1.59
2023-01-17T05:01:06.460Z,1.57
2023-01-17T05:03:35.494Z,1.54
2023-01-17T05:06:03.871Z,1.51
2023-01-17T05:08:32.185Z,1.46
2023-01-17T05:11:00.696Z,1.44
2023-01-17T05:13:28.718Z,1.45
2023-01-17T05:15:58.518Z,1.46
2023-01-17T05:18:27.036Z,1.44
2023-01-17T05:21:00.682Z,1.40
2023-01-17T05:23:28.875Z,1.38
2023-01-17T05:25:56.863Z,1.36
2023-01-17T05:28:25.749Z,1.32
2023-01-17T05:30:54.082Z,1.31
2023-01-17T05:33:22.628Z,1.31
2023-01-17T05:35:50.742Z,1.29
2023-01-17T05:38:18.908Z,1.26
2023-01-17T05:40:46.899Z,1.24
2023-01-17T05:43:15.184Z,1.21
2023-01-17T05:45:43.377Z,1.19
2023-01-17T05:48:11.376Z,1.15
2023-01-17T05:50:39.551Z,1.12
2023-01-17T05:53:13.124Z,1.10
2023-01-17T05:55:42.315Z,1.09
2023-01-17T05:58:19.763Z,1.07
2023-01-17T06:00:49.054Z,1.06
2023-01-17T06:03:17.548Z,1.05
2023-01-17T06:05:45.572Z,1.04
2023-01-17T06:08:13.828Z,1.04
2023-01-17T06:10:42.202Z,1.00
2023-01-17T06:13:13.675Z,0.96
2023-01-17T06:15:42.207Z,0.95
2023-01-17T06:18:12.846Z,0.94
2023-01-17T06:20:40.988Z,0.94
2023-01-17T06:23:14.496Z,0.94
2023-01-17T06:25:45.066Z,0.95
2023-01-17T06:28:19.680Z,0.96
2023-01-17T06:30:48.245Z,0.94
2023-01-17T06:33:16.909Z,0.94
2023-01-17T06:35:52.527Z,0.94
2023-01-17T06:38:21.516Z,0.94
2023-01-17T06:40:49.689Z,0.94
2023-01-17T06:43:17.766Z,0.96
2023-01-17T06:45:45.808Z,0.97
2023-01-17T06:48:14.264Z,0.99
2023-01-17T06:50:42.473Z,1.01
2023-01-17T06:53:10.678Z,1.03
2023-01-17T06:55:40.453Z,1.04
2023-01-17T06:58:09.582Z,1.03
2023-01-17T07:00:40.583Z,1.02
2023-01-17T07:03:19.101Z,1.03
2023-01-17T07:05:48.214Z,1.05
2023-01-17T07:08:17.722Z,1.08
2023-01-17T07:10:47.413Z,1.11
2023-01-17T07:13:15.710Z,1.14
2023-01-17T07:15:44.056Z,1.16
2023-01-17T07:18:12.078Z,1.17
2023-01-17T07:20:41.450Z,1.19
2023-01-17T07:23:09.535Z,1.21
2023-01-17T07:25:37.814Z,1.21
2023-01-17T07:28:05.989Z,1.22
2023-01-17T07:30:35.191Z,1.25
2023-01-17T07:33:03.572Z,1.27
2023-01-17T07:35:31.739Z,1.30
2023-01-17T07:37:59.823Z,1.33
2023-01-17T07:40:28.014Z,1.35
2023-01-17T07:43:02.261Z,1.38
2023-01-17T07:45:30.418Z,1.39
2023-01-17T07:47:58.647Z,1.42
2023-01-17T07:50:26.810Z,1.45
2023-01-17T07:52:56.595Z,1.48
2023-01-17T07:55:24.678Z,1.52
2023-01-17T07:57:52.783Z,1.56
2023-01-17T08:00:23.193Z,1.59
2023-01-17T08:02:55.818Z,1.61
2023-01-17T08:05:24.619Z,1.63
2023-01-17T08:07:52.786Z,1.64
2023-01-17T08:10:21.340Z,1.64
2023-01-17T08:12:50.431Z,1.66
2023-01-17T08:15:19.056Z,1.67
2023-01-17T08:17:48.720Z,1.71
2023-01-17T08:20:17.128Z,1.74
2023-01-17T08:22:45.700Z,1.79
2023-01-17T08:25:13.910Z,1.83
2023-01-17T08:27:42.072Z,1.86
2023-01-17T08:30:10.760Z,1.88
2023-01-17T08:32:40.871Z,1.90
2023-01-17T08:35:09.916Z,1.90
2023-01-17T08:37:39.104Z,1.91
2023-01-17T08:40:07.833Z,1.92
2023-01-17T08:42:39.449Z,1.93
2023-01-17T08:45:10.229Z,1.96
2023-01-17T08:47:38.663Z,1.98
2023-01-17T08:50:07.280Z,2.03
2023-01-17T08:52:36.275Z,2.07
2023-01-17T08:55:06.465Z,2.09
2023-01-17T08:57:34.529Z,2.10
2023-01-17T09:00:03.034Z,2.12
2023-01-17T09:02:31.072Z,2.13
2023-01-17T09:05:01.040Z,2.14
2023-01-17T09:07:29.450Z,2.14
2023-01-17T09:09:57.458Z,2.16
2023-01-17T09:12:25.768Z,2.17
2023-01-17T09:14:53.960Z,2.21
2023-01-17T09:17:22.039Z,2.25
2023-01-17T09:19:50.269Z,2.30
2023-01-17T09:22:18.405Z,2.33
2023-01-17T09:24:46.454Z,2.36
2023-01-17T09:27:14.493Z,2.38
2023-01-17T09:29:42.752Z,2.41
2023-01-17T09:32:10.779Z,2.41
2023-01-17T09:34:38.796Z,2.44
2023-01-17T09:37:07.703Z,2.46
2023-01-17T09:39:35.701Z,2.49
2023-01-17T09:42:38.375Z,2.53
2023-01-17T09:45:16.294Z,2.56
2023-01-17T09:47:53.740Z,2.58
2023-01-17T09:50:43.752Z,2.60
2023-01-17T09:53:16.161Z,2.61
2023-01-17T09:55:53.081Z,2.63
2023-01-17T09:58:34.758Z,2.66
2023-01-17T10:02:03.812Z,2.71
2023-01-17T10:04:55.055Z,2.76
2023-01-17T10:07:29.251Z,2.80
2023-01-17T10:10:16.698Z,2.85
2023-01-17T10:13:00.780Z,2.89
2023-01-17T10:15:36.831Z,2.93
2023-01-17T10:18:49.649Z,2.98
2023-01-17T10:21:36.146Z,3.02
2023-01-17T10:24:30.442Z,3.07
2023-01-17T10:27:01.735Z,3.13
2023-01-17T10:29:35.139Z,3.20
2023-01-17T10:32:03.786Z,3.27
2023-01-17T10:34:44.339Z,3.36
2023-01-17T10:37:24.226Z,3.46
2023-01-17T10:39:56.144Z,3.55
2023-01-17T10:42:43.216Z,3.62
2023-01-17T10:45:29.234Z,3.68
2023-01-17T10:48:12.334Z,3.72
2023-01-17T10:51:32.140Z,3.76
2023-01-17T10:54:06.523Z,3.82
2023-01-17T10:56:36.439Z,3.86
2023-01-17T10:59:19.139Z,3.92
2023-01-17T11:01:49.192Z,4.04
2023-01-17T11:04:18.351Z,4.16
2023-01-17T11:06:57.754Z,4.26
2023-01-17T11:09:38.955Z,4.37
2023-01-17T11:12:27.313Z,4.50
2023-01-17T11:15:01.595Z,4.61
2023-01-17T11:17:30.869Z,4.68
2023-01-17T11:20:23.619Z,4.71
2023-01-17T11:23:12.967Z,4.72
2023-01-17T11:25:49.017Z,4.73
2023-01-17T11:28:30.819Z,4.74
2023-01-17T11:31:07.987Z,4.75
2023-01-17T11:33:49.230Z,4.76
2023-01-17T11:36:30.156Z,4.78
2023-01-17T11:39:07.938Z,4.80
2023-01-17T11:41:41.603Z,4.78
2023-01-17T11:44:24.423Z,4.80
2023-01-17T11:47:08.940Z,4.78
2023-01-17T11:49:37.522Z,4.79
2023-01-17T11:52:30.007Z,4.79
2023-01-17T11:54:58.821Z,4.82
2023-01-17T11:57:31.396Z,4.85
2023-01-17T12:00:22.272Z,4.89
2023-01-17T12:03:20.753Z,4.91
2023-01-17T12:06:18.227Z,4.92
2023-01-17T12:09:11.526Z,4.93
2023-01-17T12:12:52.448Z,4.93
2023-01-17T12:15:31.912Z,4.91
2023-01-17T12:18:15.339Z,4.84
2023-01-17T12:21:20.724Z,4.80
2023-01-17T12:24:27.341Z,4.74
2023-01-17T12:27:20.579Z,4.62
2023-01-17T12:30:15.948Z,4.51
2023-01-17T12:32:53.167Z,4.43
2023-01-17T12:35:28.025Z,4.38
2023-01-17T12:38:05.231Z,4.33
2023-01-17T12:40:38.051Z,4.27
2023-01-17T12:43:26.280Z,4.24
2023-01-17T12:45:54.990Z,4.20
2023-01-17T12:48:31.157Z,4.17
2023-01-17T12:51:17.715Z,4.13
2023-01-17T12:53:54.938Z,4.06
2023-01-17T12:56:43.017Z,4.01
2023-01-17T12:59:45.159Z,3.96
2023-01-17T13:02:37.541Z,3.94
2023-01-17T13:05:15.724Z,3.89
2023-01-17T13:07:53.951Z,3.86
2023-01-17T13:10:25.501Z,3.87
2023-01-17T13:12:58.110Z,3.88
2023-01-17T13:15:32.528Z,3.90
2023-01-17T13:18:13.817Z,3.92
2023-01-17T13:21:04.800Z,3.92
2023-01-17T13:23:54.161Z,3.90
2023-01-17T13:26:50.824Z,3.88
2023-01-17T13:29:40.817Z,3.87
2023-01-17T13:32:33.870Z,3.86
2023-01-17T13:35:18.140Z,3.85
2023-01-17T13:38:08.172Z,3.84
2023-01-17T13:40:51.073Z,3.84
2023-01-17T13:43:30.325Z,3.86
2023-01-17T13:46:01.479Z,3.86
2023-01-17T13:48:32.313Z,3.88
2023-01-17T13:51:02.296Z,3.90
2023-01-17T13:53:39.563Z,3.90
2023-01-17T13:56:20.053Z,3.90
2023-01-17T13:58:50.108Z,3.90
2023-01-17T14:01:24.191Z,3.91
2023-01-17T14:03:52.678Z,3.91
2023-01-17T14:06:33.207Z,3.90
2023-01-17T14:09:15.323Z,3.89
2023-01-17T14:11:55.857Z,3.87
2023-01-17T14:14:44.745Z,3.84
2023-01-17T14:17:29.250Z,3.81
2023-01-17T14:20:19.316Z,3.79
2023-01-17T14:23:23.465Z,3.75
2023-01-17T14:25:52.814Z,3.73
2023-01-17T14:28:31.686Z,3.71
2023-01-17T14:31:03.012Z,3.68
2023-01-17T14:33:36.264Z,3.60
2023-01-17T14:36:19.928Z,3.52
2023-01-17T14:38:48.183Z,3.44
2023-01-17T14:41:23.221Z,3.34
2023-01-17T14:43:52.130Z,3.26
2023-01-17T14:46:27.901Z,3.19
2023-01-17T14:49:04.324Z,3.12
2023-01-17T14:51:37.232Z,3.07
2023-01-17T14:54:19.066Z,3.02
2023-01-17T14:56:47.929Z,2.98
2023-01-17T14:59:21.627Z,2.95
2023-01-17T15:02:07.683Z,2.92
2023-01-17T15:04:39.791Z,2.89
2023-01-17T15:07:15.871Z,2.88
2023-01-17T15:09:44.863Z,2.85
2023-01-17T15:12:16.734Z,2.82
2023-01-17T15:14:46.611Z,2.81
2023-01-17T15:17:24.624Z,2.80
2023-01-17T15:20:03.602Z,2.82
2023-01-17T15:22:33.061Z,2.85
2023-01-17T15:25:02.175Z,2.89
2023-01-17T15:27:30.547Z,2.90
2023-01-17T15:30:02.537Z,2.91
2023-01-17T15:32:33.329Z,2.89
2023-01-17T15:35:03.057Z,2.87
2023-01-17T15:37:33.027Z,2.84
2023-01-17T15:40:08.085Z,2.80
2023-01-17T15:42:39.432Z,2.76
2023-01-17T15:45:15.653Z,2.72
2023-01-17T15:47:44.085Z,2.65
2023-01-17T15:50:32.071Z,2.58
2023-01-17T15:53:04.846Z,2.51
2023-01-17T15:55:35.673Z,2.45
2023-01-17T15:58:22.073Z,2.37
2023-01-17T16:00:50.536Z,2.29
2023-01-17T16:03:27.513Z,2.21
2023-01-17T16:05:57.884Z,2.12
2023-01-17T16:08:38.938Z,1.99
2023-01-17T16:11:10.422Z,1.90
2023-01-17T16:13:39.390Z,1.84
2023-01-17T16:16:12.015Z,1.78
2023-01-17T16:18:40.878Z,1.70
2023-01-17T16:21:22.614Z,1.62
2023-01-17T16:23:51.748Z,1.56
2023-01-17T16:26:20.170Z,1.49
2023-01-17T16:28:49.215Z,1.42
2023-01-17T16:31:18.281Z,1.34
2023-01-17T16:33:49.176Z,1.27
2023-01-17T16:36:21.491Z,1.20
2023-01-17T16:38:51.474Z,1.17
2023-01-17T16:41:20.278Z,1.13
2023-01-17T16:43:57.657Z,1.09
2023-01-17T16:46:26.129Z,1.06
2023-01-17T16:48:54.249Z,1.04
2023-01-17T16:51:22.863Z,1.00
2023-01-17T16:53:51.245Z,0.99
2023-01-17T16:56:19.856Z,0.96
2023-01-17T16:58:48.031Z,0.93
2023-01-17T17:01:21.237Z,0.91
2023-01-17T17:03:50.238Z,0.89
2023-01-17T17:06:18.968Z,0.85
2023-01-17T17:08:47.722Z,0.81
2023-01-17T17:11:22.156Z,0.74
2023-01-17T17:13:51.749Z,0.68
2023-01-17T17:16:22.788Z,0.60
2023-01-17T17:18:55.487Z,0.56
2023-01-17T17:21:24.010Z,0.54
2023-01-17T17:23:56.919Z,0.56
2023-01-17T17:26:32.070Z,0.57
2023-01-17T17:29:00.909Z,0.54
2023-01-17T17:31:29.260Z,0.51
2023-01-17T17:33:58.747Z,0.46
2023-01-17T17:36:27.182Z,0.39
2023-01-17T17:38:56.405Z,0.30
2023-01-17T17:41:29.213Z,0.22
2023-01-17T17:43:58.131Z,0.14
2023-01-17T17:46:27.482Z,0.07
2023-01-17T17:48:57.438Z,0.01
2023-01-17T17:51:31.181Z,-0.04
2023-01-17T17:54:02.246Z,-0.09
2023-01-17T17:56:32.273Z,-0.16
2023-01-17T17:59:01.637Z,-0.20
2023-01-17T18:01:30.603Z,-0.21
2023-01-17T18:04:03.226Z,-0.23
2023-01-17T18:06:31.227Z,-0.26
2023-01-17T18:08:59.342Z,-0.30
2023-01-17T18:11:29.143Z,-0.35
2023-01-17T18:14:00.768Z,-0.41
2023-01-17T18:16:32.575Z,-0.45
2023-01-17T18:19:01.546Z,-0.49
2023-01-17T18:21:33.146Z,-0.58
2023-01-17T18:24:04.797Z,-0.68
2023-01-17T18:26:36.086Z,-0.75
2023-01-17T18:29:08.656Z,-0.75
2023-01-17T18:31:37.305Z,-0.74
2023-01-17T18:34:08.967Z,-0.73
2023-01-17T18:36:38.033Z,-0.72
2023-01-17T18:39:17.633Z,-0.74
2023-01-17T18:41:45.909Z,-0.76
2023-01-17T18:44:14.024Z,-0.79
2023-01-17T18:46:43.295Z,-0.82
2023-01-17T18:49:12.380Z,-0.90
2023-01-17T18:51:41.211Z,-0.93
2023-01-17T18:54:09.482Z,-0.97
2023-01-17T18:56:37.566Z,-0.99
2023-01-17T18:59:06.921Z,-0.99
2023-01-17T19:01:36.534Z,-0.98
2023-01-17T19:04:06.045Z,-0.97
2023-01-17T19:06:39.988Z,-0.96
2023-01-17T19:09:09.627Z,-0.94
2023-01-17T19:11:38.092Z,-0.96
2023-01-17T19:14:07.149Z,-0.97
2023-01-17T19:16:39.502Z,-0.98
2023-01-17T19:19:15.300Z,-0.98
2023-01-17T19:21:43.723Z,-0.99
2023-01-17T19:24:13.253Z,-1.05
2023-01-17T19:26:42.852Z,-1.13
2023-01-17T19:29:12.337Z,-1.24
2023-01-17T19:31:43.291Z,-1.33
2023-01-17T19:34:14.074Z,-1.38
2023-01-17T19:36:42.918Z,-1.39
2023-01-17T19:39:11.141Z,-1.41
2023-01-17T19:41:44.697Z,-1.40
2023-01-17T19:44:14.436Z,-1.38
2023-01-17T19:46:42.666Z,-1.36
2023-01-17T19:49:10.784Z,-1.37
2023-01-17T19:51:39.712Z,-1.39
2023-01-17T19:54:08.576Z,-1.41
2023-01-17T19:56:37.426Z,-1.42
2023-01-17T19:59:07.305Z,-1.41
2023-01-17T20:01:35.532Z,-1.38
2023-01-17T20:04:04.377Z,-1.39
2023-01-17T20:06:35.583Z,-1.48
2023-01-17T20:09:04.358Z,-1.59
2023-01-17T20:11:32.709Z,-1.65
2023-01-17T20:14:01.258Z,-1.63
2023-01-17T20:16:31.152Z,-1.60
2023-01-17T20:19:00.264Z,-1.58
2023-01-17T20:21:29.824Z,-1.56
2023-01-17T20:23:59.723Z,-1.55
2023-01-17T20:26:34.997Z,-1.56
2023-01-17T20:29:10.793Z,-1.55
2023-01-17T20:31:40.692Z,-1.53
2023-01-17T20:34:11.623Z,-1.52
2023-01-17T20:36:42.021Z,-1.57
2023-01-17T20:39:13.018Z,-1.65
2023-01-17T20:41:43.129Z,-1.67
2023-01-17T20:44:15.430Z,-1.65
2023-01-17T20:46:44.609Z,-1.63
2023-01-17T20:49:19.089Z,-1.61
2023-01-17T20:51:48.263Z,-1.59
2023-01-17T20:54:21.085Z,-1.56
2023-01-17T20:56:49.717Z,-1.55
2023-01-17T20:59:22.446Z,-1.54
2023-01-17T21:01:51.828Z,-1.54
2023-01-17T21:04:25.677Z,-1.58
2023-01-17T21:06:54.827Z,-1.67
2023-01-17T21:09:23.440Z,-1.79
2023-01-17T21:11:51.972Z,-1.87
2023-01-17T21:14:21.857Z,-1.86
2023-01-17T21:16:50.473Z,-1.80
2023-01-17T21:19:18.626Z,-1.75
2023-01-17T21:21:48.965Z,-1.68
2023-01-17T21:24:19.257Z,-1.61
2023-01-17T21:26:47.562Z,-1.57
2023-01-17T21:29:16.359Z,-1.53
2023-01-17T21:31:45.232Z,-1.49
2023-01-17T21:34:13.878Z,-1.46
2023-01-17T21:36:42.799Z,-1.45
2023-01-17T21:39:17.276Z,-1.40
2023-01-17T21:41:48.117Z,-1.36
2023-01-17T21:44:21.595Z,-1.31
2023-01-17T21:46:55.036Z,-1.27
2023-01-17T21:49:24.657Z,-1.24
2023-01-17T21:51:53.109Z,-1.22
2023-01-17T21:54:47.286Z,-1.20
2023-01-17T21:57:37.022Z,-1.19
2023-01-17T22:00:06.921Z,-1.20
2023-01-17T22:02:47.864Z,-1.18
2023-01-17T22:05:18.530Z,-1.18
2023-01-17T22:08:06.135Z,-1.16
2023-01-17T22:10:44.617Z,-1.13
2023-01-17T22:13:18.128Z,-1.11
2023-01-17T22:15:46.632Z,-1.06
2023-01-17T22:18:15.645Z,-1.02
2023-01-17T22:20:43.711Z,-0.99
2023-01-17T22:23:12.020Z,-0.96
2023-01-17T22:25:40.062Z,-0.95
2023-01-17T22:28:08.340Z,-0.95
2023-01-17T22:30:36.421Z,-0.96
2023-01-17T22:33:04.963Z,-0.96
2023-01-17T22:35:33.020Z,-0.97
2023-01-17T22:38:01.588Z,-0.98
2023-01-17T22:40:31.608Z,-0.96
2023-01-17T22:42:59.888Z,-0.93
2023-01-17T22:45:29.077Z,-0.91
2023-01-17T22:47:57.142Z,-0.87
2023-01-17T22:50:25.161Z,-0.84
2023-01-17T22:52:53.183Z,-0.84
2023-01-17T22:55:21.660Z,-0.83
2023-01-17T22:57:50.236Z,-0.81
2023-01-17T23:00:18.596Z,-0.83
2023-01-17T23:02:46.721Z,-0.83
2023-01-17T23:05:15.009Z,-0.82
2023-01-17T23:07:43.428Z,-0.80
2023-01-17T23:10:34.091Z,-0.77
2023-01-17T23:13:02.134Z,-0.73
2023-01-17T23:15:48.557Z,-0.70
2023-01-17T23:18:35.642Z,-0.69
2023-01-17T23:21:04.019Z,-0.69
2023-01-17T23:23:32.357Z,-0.70
2023-01-17T23:26:01.331Z,-0.71
2023-01-17T23:28:29.479Z,-0.71
2023-01-17T23:31:03.228Z,-0.71
2023-01-17T23:33:31.249Z,-0.69
2023-01-17T23:35:59.282Z,-0.68
2023-01-17T23:38:29.420Z,-0.66
2023-01-17T23:41:27.048Z,-0.66
2023-01-17T23:43:57.720Z,-0.65
2023-01-17T23:46:27.017Z,-0.65
2023-01-17T23:48:55.420Z,-0.66
2023-01-17T23:51:23.518Z,-0.66
2023-01-17T23:53:57.710Z,-0.67
2023-01-17T23:56:25.931Z,-0.66
2023-01-17T23:58:54.150Z,-0.65
